MSC Carolina — 3ECV5 — position and weather

sailwx.info

Track history (hours):
 
Tides and Currents Weather Stations Pressure Air Temp Water Temp Dewpoint Dewpoint Depression Visibility Wind Speed Wind Dir Waves Ship Positions

MSC Carolina

Last reported at 2016-Feb-09 02:33 UTC. Time now 2016-Feb-09 03:21 UTC.
Position N 43°20' E 004°59'.

Length 275 m; draft 10.2 m.

Type: Ship (hazmat cat B). MMSI: 371475000.

Date/timePositionNaut miles runAvg speedWind from/ knotsBaromVisibWave heightAir tempDewpointWater temp
2016-Feb-09 02:33N 43°20' E 004°59'9 8.9
2016-Feb-09 01:33N 43°12' E 005°03'1111.0
2016-Feb-09 00:33N 43°02' E 004°55'1818.2
2016-Feb-08 23:33N 42°48' E 004°40'1818.4
2016-Feb-08 22:33N 42°33' E 004°25'1918.6
2016-Feb-08 21:33N 42°18' E 004°10'7217.8
2016-Feb-08 17:32N 41°21' E 003°12'1717.5
2016-Feb-08 16:33N 41°08' E 002°58'1717.5
2016-Feb-08 15:33N 40°54' E 002°44'1817.5
2016-Feb-08 14:33N 40°39' E 002°30'1717.6
2016-Feb-08 13:33N 40°26' E 002°17'1717.2
2016-Feb-08 12:33N 40°12' E 002°03'1717.3
2016-Feb-08 11:33N 39°58' E 001°49'1817.6
2016-Feb-08 10:33N 39°44' E 001°36'1717.2
2016-Feb-08 09:33N 39°30' E 001°22'12117.0
2016-Feb-08 02:26N 37°54' W 000°11'1517.5
2016-Feb-08 01:33N 37°41' W 000°23'1717.3
2016-Feb-08 00:33N 37°29' W 000°37'1717.4
2016-Feb-07 23:33N 37°17' W 000°54'22317.1
2016-Feb-07 10:34N 36°00' W 005°14'2019.6
2016-Feb-07 09:33N 35°55' W 005°37'11818.2
2016-Feb-07 03:05N 36°17' W 008°01'6418.0
2016-Feb-06 23:32N 36°35' W 009°17'1818.2
2016-Feb-06 22:32N 36°48' W 009°32'1818.3
2016-Feb-06 21:32N 37°06' W 009°38'1918.6
2016-Feb-06 20:32N 37°24' W 009°45'1716.4
2016-Feb-06 19:29N 37°41' W 009°48'1718.1
2016-Feb-06 18:33N 37°57' W 009°54'2121.5
2016-Feb-06 17:33N 38°18' W 010°00'1615.5
2016-Feb-06 16:31N 38°34' W 010°04'1818.5
2016-Feb-06 15:33N 38°51' W 010°06'1818.2
2016-Feb-06 14:33N 39°10' W 010°07'2019.4
2016-Feb-06 13:32N 39°29' W 010°07'1818.3
2016-Feb-06 12:32N 39°48' W 010°06'1818.2
2016-Feb-06 11:32N 40°06' W 010°06'1817.4
2016-Feb-06 10:29N 40°24' W 010°08'1717.5
2016-Feb-06 09:32N 40°41' W 010°07'3818.9
2016-Feb-06 07:32N 41°19' W 010°07'1918.5
2016-Feb-06 06:32N 41°37' W 010°07'62816.1
2016-Feb-04 15:34N 49°39' W 000°33'1817.8
2016-Feb-04 14:34N 49°32' W 000°08'1111.2
2016-Feb-04 13:32N 49°28' E 000°09'0 0.0
2016-Feb-04 12:32N 49°28' E 000°09'0 0.0
2016-Feb-04 11:32N 49°28' E 000°09'0 0.0
2016-Feb-04 10:32N 49°28' E 000°09'0 0.0
2016-Feb-04 09:32N 49°28' E 000°09'0 0.0
2016-Feb-04 08:32N 49°28' E 000°09'0 0.0
2016-Feb-04 07:32N 49°28' E 000°09'0 0.0
2016-Feb-04 06:32N 49°28' E 000°09'0 0.0
2016-Feb-04 05:32N 49°28' E 000°09'0 0.0
2016-Feb-04 04:32N 49°28' E 000°09'0 0.0
2016-Feb-04 03:32N 49°28' E 000°09'0 0.0
2016-Feb-04 02:32N 49°28' E 000°09'0 0.0
2016-Feb-04 01:32N 49°28' E 000°09'0 0.0
2016-Feb-04 00:32N 49°28' E 000°09'0 0.0
2016-Feb-03 23:32N 49°28' E 000°09'0 0.0
2016-Feb-03 22:32N 49°28' E 000°09'0 0.0
2016-Feb-03 21:32N 49°28' E 000°09'0 0.0
2016-Feb-03 20:32N 49°28' E 000°09'0 0.1
2016-Feb-03 19:33N 49°28' E 000°08'1010.3
2016-Feb-03 18:34N 49°31' W 000°06'7 7.5
2016-Feb-03 17:33N 49°33' W 000°17'9 9.2
2016-Feb-03 16:33N 49°39' W 000°28'7 7.3
2016-Feb-03 15:33N 49°47' W 000°27'1110.5
2016-Feb-03 14:32N 49°57' W 000°22'3411.1
2016-Feb-03 11:29N 50°28' W 000°02'1211.0
2016-Feb-03 10:26N 50°31' E 000°16'3416.9
2016-Feb-03 08:26N 50°47' E 001°03'1517.7
2016-Feb-03 07:33N 50°57' E 001°21'1817.6
2016-Feb-03 06:34N 51°10' E 001°41'1818.3
2016-Feb-03 05:33N 51°24' E 001°59'1716.7
2016-Feb-03 04:31N 51°22' E 002°27'1414.1
2016-Feb-03 03:33N 51°25' E 002°48'1818.4
2016-Feb-03 02:33N 51°25' E 003°18'1413.9
2016-Feb-03 01:33N 51°26' E 003°40'1212.0
2016-Feb-03 00:34N 51°26' E 003°59'1212.1
2016-Feb-02 23:34N 51°21' E 004°16'1 0.6
2016-Feb-02 22:34N 51°21' E 004°17'2 2.1
2016-Feb-02 21:33N 51°20' E 004°20'0 0.0
2016-Feb-02 20:33N 51°20' E 004°20'0 0.0
2016-Feb-02 19:34N 51°20' E 004°20'0 0.0
2016-Feb-02 18:34N 51°20' E 004°20'0 0.0
2016-Feb-02 17:33N 51°20' E 004°20'0 0.0
2016-Feb-02 16:34N 51°20' E 004°20'0 0.0
2016-Feb-02 15:34N 51°20' E 004°20'0 0.0
2016-Feb-02 14:33N 51°20' E 004°20'0 0.0
2016-Feb-02 13:34N 51°20' E 004°20'0 0.0
2016-Feb-02 12:34N 51°20' E 004°20'0 0.0
2016-Feb-02 11:34N 51°20' E 004°20'0 0.0
2016-Feb-02 10:33N 51°20' E 004°20'0 0.0
2016-Feb-02 09:34N 51°20' E 004°20'0 0.0
2016-Feb-02 08:33N 51°20' E 004°20'0 0.0
2016-Feb-02 07:33N 51°20' E 004°20'0 0.0
2016-Feb-02 06:33N 51°20' E 004°20'0 0.0
2016-Feb-02 05:34N 51°20' E 004°20'0 0.0
2016-Feb-02 04:34N 51°20' E 004°20'0 0.0
2016-Feb-02 03:33N 51°20' E 004°20'0 0.0
2016-Feb-02 02:33N 51°20' E 004°20'0 0.0
2016-Feb-02 01:33N 51°20' E 004°20'0 0.0
2016-Feb-02 00:33N 51°20' E 004°20'0 0.0
2016-Feb-01 23:34N 51°20' E 004°20'0 0.0
2016-Feb-01 22:34N 51°20' E 004°20'0 0.0
2016-Feb-01 21:34N 51°20' E 004°20'0 0.0
2016-Feb-01 20:34N 51°20' E 004°20'0 0.0
2016-Feb-01 19:34N 51°20' E 004°20'0 0.0
2016-Feb-01 18:34N 51°20' E 004°20'0 0.0
2016-Feb-01 17:33N 51°20' E 004°20'0 0.0
2016-Feb-01 16:34N 51°20' E 004°20'0 0.0
2016-Feb-01 15:33N 51°20' E 004°20'0 0.0
2016-Feb-01 14:33N 51°20' E 004°20'0 0.0
2016-Feb-01 13:34N 51°20' E 004°20'0 0.0
2016-Feb-01 12:34N 51°20' E 004°20'0 0.0
2016-Feb-01 11:34N 51°20' E 004°20'0 0.0
2016-Feb-01 10:34N 51°20' E 004°20'0 0.0
2016-Feb-01 09:34N 51°20' E 004°20'0 0.0
2016-Feb-01 08:34N 51°20' E 004°20'0 0.0
2016-Feb-01 07:34N 51°20' E 004°20'0 0.0
2016-Feb-01 06:34N 51°20' E 004°20'0 0.0
2016-Feb-01 05:34N 51°20' E 004°20'0 0.0
2016-Feb-01 04:34N 51°20' E 004°20'0 0.0
2016-Feb-01 03:34N 51°20' E 004°20'0 0.0
2016-Feb-01 02:34N 51°20' E 004°20'0 0.0
2016-Feb-01 01:33N 51°20' E 004°20'0 0.0
2016-Feb-01 00:34N 51°20' E 004°20'0 0.0
2016-Jan-31 23:33N 51°20' E 004°20'0 0.0
2016-Jan-31 22:33N 51°20' E 004°20'0 0.0
2016-Jan-31 21:33N 51°20' E 004°20'0 0.0
2016-Jan-31 20:34N 51°20' E 004°20'0 0.0
2016-Jan-31 19:34N 51°20' E 004°20'0 0.0
2016-Jan-31 18:34N 51°20' E 004°20'0 0.0
2016-Jan-31 17:34N 51°20' E 004°20'1 1.4
2016-Jan-31 16:34N 51°20' E 004°18'1 0.7
2016-Jan-31 15:34N 51°21' E 004°17'5 4.9
2016-Jan-31 14:34N 51°24' E 004°11'9 9.0
2016-Jan-31 13:33N 51°23' E 003°57'1111.3
2016-Jan-31 12:34N 51°26' E 003°40'1414.3
2016-Jan-31 11:33N 51°25' E 003°17'10 9.7
2016-Jan-31 10:33N 51°31' E 003°05'1616.1
2016-Jan-31 09:33N 51°46' E 003°15'2215.5
2016-Jan-31 08:09N 52°03' E 003°36'1117.7
2016-Jan-31 07:33N 52°03' E 003°54'9 9.0
2016-Jan-31 06:33N 51°58' E 004°05'1 0.6
2016-Jan-31 05:33N 51°58' E 004°04'0 0.0
2016-Jan-31 04:33N 51°58' E 004°04'0 0.0
2016-Jan-31 03:33N 51°58' E 004°04'0 0.0
2016-Jan-31 02:32N 51°58' E 004°04'0 0.0
2016-Jan-31 01:32N 51°58' E 004°04'0 0.0
2016-Jan-31 00:32N 51°58' E 004°04'0 0.0
2016-Jan-30 23:34N 51°58' E 004°04'0 0.0
2016-Jan-30 22:34N 51°58' E 004°04'0 0.0
2016-Jan-30 21:34N 51°58' E 004°04'0 0.0
2016-Jan-30 20:34N 51°58' E 004°04'0 0.0
2016-Jan-30 19:34N 51°58' E 004°04'0 0.0
2016-Jan-30 18:33N 51°58' E 004°04'0 0.0
2016-Jan-30 17:34N 51°58' E 004°04'0 0.0
2016-Jan-30 16:34N 51°58' E 004°04'0 0.0
2016-Jan-30 15:34N 51°58' E 004°04'0 0.0
2016-Jan-30 14:33N 51°58' E 004°04'0 0.0
2016-Jan-30 13:33N 51°58' E 004°04'0 0.0
2016-Jan-30 12:33N 51°58' E 004°04'0 0.0
2016-Jan-30 11:33N 51°58' E 004°04'3 2.5
2016-Jan-30 10:33N 51°60' E 004°01'5 5.1
2016-Jan-30 09:33N 51°60' E 003°53'6 5.8
2016-Jan-30 08:34N 51°58' E 003°44'1615.9
2016-Jan-30 07:33N 51°53' E 003°20'7 6.6
2016-Jan-30 06:31N 51°50' E 003°10'4 4.1
2016-Jan-30 05:33N 51°53' E 003°12'  
Track history (hours):
 
Tides and Currents Weather Stations Pressure Air Temp Water Temp Dewpoint Dewpoint Depression Visibility Wind Speed Wind Dir Waves Ship Positions

MSC Carolina

Last reported at 2016-Feb-09 02:33 UTC. Time now 2016-Feb-09 03:21 UTC.
Position N 43°20' E 004°59'.

Length 275 m; draft 10.2 m.

Type: Ship (hazmat cat B). MMSI: 371475000.

Date/timePositionNaut miles runAvg speedWind from/ knotsBaromVisibWave heightAir tempDewpointWater temp
2016-Feb-09 02:33N 43°20' E 004°59'9 8.9
2016-Feb-09 01:33N 43°12' E 005°03'1111.0
2016-Feb-09 00:33N 43°02' E 004°55'1818.2
2016-Feb-08 23:33N 42°48' E 004°40'1818.4
2016-Feb-08 22:33N 42°33' E 004°25'1918.6
2016-Feb-08 21:33N 42°18' E 004°10'7217.8
2016-Feb-08 17:32N 41°21' E 003°12'1717.5
2016-Feb-08 16:33N 41°08' E 002°58'1717.5
2016-Feb-08 15:33N 40°54' E 002°44'1817.5
2016-Feb-08 14:33N 40°39' E 002°30'1717.6
2016-Feb-08 13:33N 40°26' E 002°17'1717.2
2016-Feb-08 12:33N 40°12' E 002°03'1717.3
2016-Feb-08 11:33N 39°58' E 001°49'1817.6
2016-Feb-08 10:33N 39°44' E 001°36'1717.2
2016-Feb-08 09:33N 39°30' E 001°22'12117.0
2016-Feb-08 02:26N 37°54' W 000°11'1517.5
2016-Feb-08 01:33N 37°41' W 000°23'1717.3
2016-Feb-08 00:33N 37°29' W 000°37'1717.4
2016-Feb-07 23:33N 37°17' W 000°54'22317.1
2016-Feb-07 10:34N 36°00' W 005°14'2019.6
2016-Feb-07 09:33N 35°55' W 005°37'11818.2
2016-Feb-07 03:05N 36°17' W 008°01'6418.0
2016-Feb-06 23:32N 36°35' W 009°17'1818.2
2016-Feb-06 22:32N 36°48' W 009°32'1818.3
2016-Feb-06 21:32N 37°06' W 009°38'1918.6
2016-Feb-06 20:32N 37°24' W 009°45'1716.4
2016-Feb-06 19:29N 37°41' W 009°48'1718.1
2016-Feb-06 18:33N 37°57' W 009°54'2121.5
2016-Feb-06 17:33N 38°18' W 010°00'1615.5
2016-Feb-06 16:31N 38°34' W 010°04'1818.5
2016-Feb-06 15:33N 38°51' W 010°06'1818.2
2016-Feb-06 14:33N 39°10' W 010°07'2019.4
2016-Feb-06 13:32N 39°29' W 010°07'1818.3
2016-Feb-06 12:32N 39°48' W 010°06'1818.2
2016-Feb-06 11:32N 40°06' W 010°06'1817.4
2016-Feb-06 10:29N 40°24' W 010°08'1717.5
2016-Feb-06 09:32N 40°41' W 010°07'3818.9
2016-Feb-06 07:32N 41°19' W 010°07'1918.5
2016-Feb-06 06:32N 41°37' W 010°07'62816.1
2016-Feb-04 15:34N 49°39' W 000°33'1817.8
2016-Feb-04 14:34N 49°32' W 000°08'1111.2
2016-Feb-04 13:32N 49°28' E 000°09'0 0.0
2016-Feb-04 12:32N 49°28' E 000°09'0 0.0
2016-Feb-04 11:32N 49°28' E 000°09'0 0.0
2016-Feb-04 10:32N 49°28' E 000°09'0 0.0
2016-Feb-04 09:32N 49°28' E 000°09'0 0.0
2016-Feb-04 08:32N 49°28' E 000°09'0 0.0
2016-Feb-04 07:32N 49°28' E 000°09'0 0.0
2016-Feb-04 06:32N 49°28' E 000°09'0 0.0
2016-Feb-04 05:32N 49°28' E 000°09'0 0.0
2016-Feb-04 04:32N 49°28' E 000°09'0 0.0
2016-Feb-04 03:32N 49°28' E 000°09'0 0.0
2016-Feb-04 02:32N 49°28' E 000°09'0 0.0
2016-Feb-04 01:32N 49°28' E 000°09'0 0.0
2016-Feb-04 00:32N 49°28' E 000°09'0 0.0
2016-Feb-03 23:32N 49°28' E 000°09'0 0.0
2016-Feb-03 22:32N 49°28' E 000°09'0 0.0
2016-Feb-03 21:32N 49°28' E 000°09'0 0.0
2016-Feb-03 20:32N 49°28' E 000°09'0 0.1
2016-Feb-03 19:33N 49°28' E 000°08'1010.3
2016-Feb-03 18:34N 49°31' W 000°06'7 7.5
2016-Feb-03 17:33N 49°33' W 000°17'9 9.2
2016-Feb-03 16:33N 49°39' W 000°28'7 7.3
2016-Feb-03 15:33N 49°47' W 000°27'1110.5
2016-Feb-03 14:32N 49°57' W 000°22'3411.1
2016-Feb-03 11:29N 50°28' W 000°02'1211.0
2016-Feb-03 10:26N 50°31' E 000°16'3416.9
2016-Feb-03 08:26N 50°47' E 001°03'1517.7
2016-Feb-03 07:33N 50°57' E 001°21'1817.6
2016-Feb-03 06:34N 51°10' E 001°41'1818.3
2016-Feb-03 05:33N 51°24' E 001°59'1716.7
2016-Feb-03 04:31N 51°22' E 002°27'1414.1
2016-Feb-03 03:33N 51°25' E 002°48'1818.4
2016-Feb-03 02:33N 51°25' E 003°18'1413.9
2016-Feb-03 01:33N 51°26' E 003°40'1212.0
2016-Feb-03 00:34N 51°26' E 003°59'1212.1
2016-Feb-02 23:34N 51°21' E 004°16'1 0.6
2016-Feb-02 22:34N 51°21' E 004°17'2 2.1
2016-Feb-02 21:33N 51°20' E 004°20'0 0.0
2016-Feb-02 20:33N 51°20' E 004°20'0 0.0
2016-Feb-02 19:34N 51°20' E 004°20'0 0.0
2016-Feb-02 18:34N 51°20' E 004°20'0 0.0
2016-Feb-02 17:33N 51°20' E 004°20'0 0.0
2016-Feb-02 16:34N 51°20' E 004°20'0 0.0
2016-Feb-02 15:34N 51°20' E 004°20'0 0.0
2016-Feb-02 14:33N 51°20' E 004°20'0 0.0
2016-Feb-02 13:34N 51°20' E 004°20'0 0.0
2016-Feb-02 12:34N 51°20' E 004°20'0 0.0
2016-Feb-02 11:34N 51°20' E 004°20'0 0.0
2016-Feb-02 10:33N 51°20' E 004°20'0 0.0
2016-Feb-02 09:34N 51°20' E 004°20'0 0.0
2016-Feb-02 08:33N 51°20' E 004°20'0 0.0
2016-Feb-02 07:33N 51°20' E 004°20'0 0.0
2016-Feb-02 06:33N 51°20' E 004°20'0 0.0
2016-Feb-02 05:34N 51°20' E 004°20'0 0.0
2016-Feb-02 04:34N 51°20' E 004°20'0 0.0
2016-Feb-02 03:33N 51°20' E 004°20'0 0.0
2016-Feb-02 02:33N 51°20' E 004°20'0 0.0
2016-Feb-02 01:33N 51°20' E 004°20'0 0.0
2016-Feb-02 00:33N 51°20' E 004°20'0 0.0
2016-Feb-01 23:34N 51°20' E 004°20'0 0.0
2016-Feb-01 22:34N 51°20' E 004°20'0 0.0
2016-Feb-01 21:34N 51°20' E 004°20'0 0.0
2016-Feb-01 20:34N 51°20' E 004°20'0 0.0
2016-Feb-01 19:34N 51°20' E 004°20'0 0.0
2016-Feb-01 18:34N 51°20' E 004°20'0 0.0
2016-Feb-01 17:33N 51°20' E 004°20'0 0.0
2016-Feb-01 16:34N 51°20' E 004°20'0 0.0
2016-Feb-01 15:33N 51°20' E 004°20'0 0.0
2016-Feb-01 14:33N 51°20' E 004°20'0 0.0
2016-Feb-01 13:34N 51°20' E 004°20'0 0.0
2016-Feb-01 12:34N 51°20' E 004°20'0 0.0
2016-Feb-01 11:34N 51°20' E 004°20'0 0.0
2016-Feb-01 10:34N 51°20' E 004°20'0 0.0
2016-Feb-01 09:34N 51°20' E 004°20'0 0.0
2016-Feb-01 08:34N 51°20' E 004°20'0 0.0
2016-Feb-01 07:34N 51°20' E 004°20'0 0.0
2016-Feb-01 06:34N 51°20' E 004°20'0 0.0
2016-Feb-01 05:34N 51°20' E 004°20'0 0.0
2016-Feb-01 04:34N 51°20' E 004°20'0 0.0
2016-Feb-01 03:34N 51°20' E 004°20'0 0.0
2016-Feb-01 02:34N 51°20' E 004°20'0 0.0
2016-Feb-01 01:33N 51°20' E 004°20'0 0.0
2016-Feb-01 00:34N 51°20' E 004°20'0 0.0
2016-Jan-31 23:33N 51°20' E 004°20'0 0.0
2016-Jan-31 22:33N 51°20' E 004°20'0 0.0
2016-Jan-31 21:33N 51°20' E 004°20'0 0.0
2016-Jan-31 20:34N 51°20' E 004°20'0 0.0
2016-Jan-31 19:34N 51°20' E 004°20'0 0.0
2016-Jan-31 18:34N 51°20' E 004°20'0 0.0
2016-Jan-31 17:34N 51°20' E 004°20'1 1.4
2016-Jan-31 16:34N 51°20' E 004°18'1 0.7
2016-Jan-31 15:34N 51°21' E 004°17'5 4.9
2016-Jan-31 14:34N 51°24' E 004°11'9 9.0
2016-Jan-31 13:33N 51°23' E 003°57'1111.3
2016-Jan-31 12:34N 51°26' E 003°40'1414.3
2016-Jan-31 11:33N 51°25' E 003°17'10 9.7
2016-Jan-31 10:33N 51°31' E 003°05'1616.1
2016-Jan-31 09:33N 51°46' E 003°15'2215.5
2016-Jan-31 08:09N 52°03' E 003°36'1117.7
2016-Jan-31 07:33N 52°03' E 003°54'9 9.0
2016-Jan-31 06:33N 51°58' E 004°05'1 0.6
2016-Jan-31 05:33N 51°58' E 004°04'0 0.0
2016-Jan-31 04:33N 51°58' E 004°04'0 0.0
2016-Jan-31 03:33N 51°58' E 004°04'0 0.0
2016-Jan-31 02:32N 51°58' E 004°04'0 0.0
2016-Jan-31 01:32N 51°58' E 004°04'0 0.0
2016-Jan-31 00:32N 51°58' E 004°04'0 0.0
2016-Jan-30 23:34N 51°58' E 004°04'0 0.0
2016-Jan-30 22:34N 51°58' E 004°04'0 0.0
2016-Jan-30 21:34N 51°58' E 004°04'0 0.0
2016-Jan-30 20:34N 51°58' E 004°04'0 0.0
2016-Jan-30 19:34N 51°58' E 004°04'0 0.0
2016-Jan-30 18:33N 51°58' E 004°04'0 0.0
2016-Jan-30 17:34N 51°58' E 004°04'0 0.0
2016-Jan-30 16:34N 51°58' E 004°04'0 0.0
2016-Jan-30 15:34N 51°58' E 004°04'0 0.0
2016-Jan-30 14:33N 51°58' E 004°04'0 0.0
2016-Jan-30 13:33N 51°58' E 004°04'0 0.0
2016-Jan-30 12:33N 51°58' E 004°04'0 0.0
2016-Jan-30 11:33N 51°58' E 004°04'3 2.5
2016-Jan-30 10:33N 51°60' E 004°01'5 5.1
2016-Jan-30 09:33N 51°60' E 003°53'6 5.8
2016-Jan-30 08:34N 51°58' E 003°44'1615.9
2016-Jan-30 07:33N 51°53' E 003°20'7 6.6
2016-Jan-30 06:31N 51°50' E 003°10'4 4.1
2016-Jan-30 05:33N 51°53' E 003°12'  

Dump ship's entire track history